sensor_id;sensor_type;location;lat;lon;timestamp;pressure;altitude;pressure_sealevel;temperature;humidity
41596;BME280;27283;52.504;13.358;2023-07-30T00:00:17;100469.13;;;17.69;100.00
41596;BME280;27283;52.504;13.358;2023-07-30T00:03:11;100470.00;;;17.69;100.00
41596;BME280;27283;52.504;13.358;2023-07-30T00:05:53;100466.66;;;17.67;100.00
41596;BME280;27283;52.504;13.358;2023-07-30T00:08:25;100464.16;;;17.66;100.00
41596;BME280;27283;52.504;13.358;2023-07-30T00:11:00;100467.53;;;17.61;100.00
41596;BME280;27283;52.504;13.358;2023-07-30T00:13:32;100456.72;;;17.48;100.00
41596;BME280;27283;52.504;13.358;2023-07-30T00:16:04;100458.25;;;17.44;100.00
41596;BME280;27283;52.504;13.358;2023-07-30T00:18:39;100458.63;;;17.47;100.00
41596;BME280;27283;52.504;13.358;2023-07-30T00:21:11;100456.28;;;17.19;100.00
41596;BME280;27283;52.504;13.358;2023-07-30T00:24:08;100459.34;;;17.29;100.00
41596;BME280;27283;52.504;13.358;2023-07-30T00:26:44;100458.47;;;17.35;100.00
41596;BME280;27283;52.504;13.358;2023-07-30T00:29:16;100450.78;;;17.32;100.00
41596;BME280;27283;52.504;13.358;2023-07-30T00:31:48;100451.22;;;17.29;100.00
41596;BME280;27283;52.504;13.358;2023-07-30T00:34:27;100461.81;;;17.38;100.00
41596;BME280;27283;52.504;13.358;2023-07-30T00:36:59;100459.50;;;17.41;100.00
41596;BME280;27283;52.504;13.358;2023-07-30T00:39:31;100454.88;;;17.42;100.00
41596;BME280;27283;52.504;13.358;2023-07-30T00:42:03;100454.94;;;17.35;100.00
41596;BME280;27283;52.504;13.358;2023-07-30T00:44:35;100446.38;;;17.31;100.00
41596;BME280;27283;52.504;13.358;2023-07-30T00:47:07;100444.75;;;17.24;100.00
41596;BME280;27283;52.504;13.358;2023-07-30T00:49:42;100434.09;;;17.29;100.00
41596;BME280;27283;52.504;13.358;2023-07-30T00:52:16;100427.84;;;17.22;100.00
41596;BME280;27283;52.504;13.358;2023-07-30T00:54:49;100418.03;;;17.21;100.00
41596;BME280;27283;52.504;13.358;2023-07-30T00:57:25;100419.91;;;17.20;100.00
41596;BME280;27283;52.504;13.358;2023-07-30T00:59:58;100413.44;;;17.21;100.00
41596;BME280;27283;52.504;13.358;2023-07-30T01:02:33;100422.84;;;17.18;100.00
41596;BME280;27283;52.504;13.358;2023-07-30T01:05:08;100416.63;;;17.11;100.00
41596;BME280;27283;52.504;13.358;2023-07-30T01:07:40;100417.03;;;17.08;100.00
41596;BME280;27283;52.504;13.358;2023-07-30T01:10:12;100432.09;;;17.04;100.00
41596;BME280;27283;52.504;13.358;2023-07-30T01:12:45;100436.09;;;17.02;100.00
41596;BME280;27283;52.504;13.358;2023-07-30T01:15:18;100430.25;;;16.98;100.00
41596;BME280;27283;52.504;13.358;2023-07-30T01:17:50;100437.78;;;16.96;100.00
41596;BME280;27283;52.504;13.358;2023-07-30T01:20:29;100449.25;;;16.98;100.00
41596;BME280;27283;52.504;13.358;2023-07-30T01:23:04;100447.63;;;16.97;100.00
41596;BME280;27283;52.504;13.358;2023-07-30T01:25:37;100449.09;;;16.93;100.00
41596;BME280;27283;52.504;13.358;2023-07-30T01:28:13;100448.69;;;16.82;100.00
41596;BME280;27283;52.504;13.358;2023-07-30T01:30:50;100449.72;;;16.81;100.00
41596;BME280;27283;52.504;13.358;2023-07-30T01:33:23;100448.28;;;16.79;100.00
41596;BME280;27283;52.504;13.358;2023-07-30T01:35:57;100452.69;;;16.73;100.00
41596;BME280;27283;52.504;13.358;2023-07-30T01:38:33;100460.00;;;16.73;100.00
41596;BME280;27283;52.504;13.358;2023-07-30T01:41:08;100458.53;;;16.70;100.00
41596;BME280;27283;52.504;13.358;2023-07-30T01:43:45;100465.00;;;16.69;100.00
41596;BME280;27283;52.504;13.358;2023-07-30T01:46:17;100463.16;;;16.63;100.00
41596;BME280;27283;52.504;13.358;2023-07-30T01:48:50;100470.69;;;16.61;100.00
41596;BME280;27283;52.504;13.358;2023-07-30T01:51:22;100470.47;;;16.56;100.00
41596;BME280;27283;52.504;13.358;2023-07-30T01:53:57;100472.75;;;16.59;100.00
41596;BME280;27283;52.504;13.358;2023-07-30T01:56:29;100469.84;;;16.54;100.00
41596;BME280;27283;52.504;13.358;2023-07-30T01:59:04;100468.59;;;16.56;100.00
41596;BME280;27283;52.504;13.358;2023-07-30T02:01:39;100469.84;;;16.54;100.00
41596;BME280;27283;52.504;13.358;2023-07-30T02:04:11;100465.03;;;16.56;100.00
41596;BME280;27283;52.504;13.358;2023-07-30T02:06:43;100473.81;;;16.58;100.00
41596;BME280;27283;52.504;13.358;2023-07-30T02:09:18;100469.00;;;16.60;100.00
41596;BME280;27283;52.504;13.358;2023-07-30T02:11:52;100471.09;;;16.58;100.00
41596;BME280;27283;52.504;13.358;2023-07-30T02:14:26;100468.38;;;16.58;100.00
41596;BME280;27283;52.504;13.358;2023-07-30T02:17:01;100466.75;;;16.50;100.00
41596;BME280;27283;52.504;13.358;2023-07-30T02:19:33;100465.66;;;16.51;100.00
41596;BME280;27283;52.504;13.358;2023-07-30T02:22:05;100471.97;;;16.52;100.00
41596;BME280;27283;52.504;13.358;2023-07-30T02:24:40;100475.91;;;16.49;100.00
41596;BME280;27283;52.504;13.358;2023-07-30T02:27:13;100480.50;;;16.48;100.00
41596;BME280;27283;52.504;13.358;2023-07-30T02:29:45;100476.94;;;16.48;100.00
41596;BME280;27283;52.504;13.358;2023-07-30T02:32:17;100482.38;;;16.48;100.00
41596;BME280;27283;52.504;13.358;2023-07-30T02:34:52;100475.69;;;16.44;100.00
41596;BME280;27283;52.504;13.358;2023-07-30T02:37:28;100477.81;;;16.42;100.00
41596;BME280;27283;52.504;13.358;2023-07-30T02:40:11;100477.78;;;16.48;100.00
41596;BME280;27283;52.504;13.358;2023-07-30T02:42:44;100480.09;;;16.45;100.00
41596;BME280;27283;52.504;13.358;2023-07-30T02:45:16;100481.78;;;16.46;100.00
41596;BME280;27283;52.504;13.358;2023-07-30T02:47:49;100479.66;;;16.48;100.00
41596;BME280;27283;52.504;13.358;2023-07-30T02:50:23;100490.72;;;16.46;100.00
41596;BME280;27283;52.504;13.358;2023-07-30T02:52:58;100490.13;;;16.31;100.00
41596;BME280;27283;52.504;13.358;2023-07-30T02:55:33;100491.19;;;16.37;100.00
41596;BME280;27283;52.504;13.358;2023-07-30T02:58:08;100488.47;;;16.37;100.00
41596;BME280;27283;52.504;13.358;2023-07-30T03:00:43;100485.75;;;16.37;100.00
41596;BME280;27283;52.504;13.358;2023-07-30T03:03:16;100484.47;;;16.26;100.00
41596;BME280;27283;52.504;13.358;2023-07-30T03:05:49;100482.59;;;16.33;100.00
41596;BME280;27283;52.504;13.358;2023-07-30T03:08:24;100485.31;;;16.40;100.00
41596;BME280;27283;52.504;13.358;2023-07-30T03:11:00;100491.38;;;16.28;100.00
41596;BME280;27283;52.504;13.358;2023-07-30T03:13:33;100485.75;;;16.37;100.00
41596;BME280;27283;52.504;13.358;2023-07-30T03:16:05;100490.97;;;16.38;100.00
41596;BME280;27283;52.504;13.358;2023-07-30T03:18:37;100499.50;;;16.42;100.00
41596;BME280;27283;52.504;13.358;2023-07-30T03:21:09;100499.28;;;16.43;100.00
41596;BME280;27283;52.504;13.358;2023-07-30T03:23:44;100502.00;;;16.43;100.00
41596;BME280;27283;52.504;13.358;2023-07-30T03:26:24;100496.38;;;16.45;100.00
41596;BME280;27283;52.504;13.358;2023-07-30T03:29:00;100496.59;;;16.43;100.00
41596;BME280;27283;52.504;13.358;2023-07-30T03:31:34;100502.00;;;16.43;100.00
41596;BME280;27283;52.504;13.358;2023-07-30T03:34:09;100503.91;;;16.43;100.00
41596;BME280;27283;52.504;13.358;2023-07-30T03:36:41;100509.13;;;16.44;100.00
41596;BME280;27283;52.504;13.358;2023-07-30T03:39:13;100507.25;;;16.38;100.00
41596;BME280;27283;52.504;13.358;2023-07-30T03:41:48;100506.81;;;16.41;100.00
41596;BME280;27283;52.504;13.358;2023-07-30T03:44:21;100509.31;;;16.36;100.00
41596;BME280;27283;52.504;13.358;2023-07-30T03:46:53;100513.50;;;16.32;100.00
41596;BME280;27283;52.504;13.358;2023-07-30T03:49:25;100518.94;;;16.39;100.00
41596;BME280;27283;52.504;13.358;2023-07-30T03:52:00;100522.28;;;16.34;100.00
41596;BME280;27283;52.504;13.358;2023-07-30T03:54:37;100514.97;;;16.41;100.00
41596;BME280;27283;52.504;13.358;2023-07-30T03:57:12;100507.84;;;16.47;100.00
41596;BME280;27283;52.504;13.358;2023-07-30T03:59:44;100505.56;;;16.51;100.00
41596;BME280;27283;52.504;13.358;2023-07-30T04:02:17;100512.25;;;16.55;100.00
41596;BME280;27283;52.504;13.358;2023-07-30T04:04:52;100513.69;;;16.51;100.00
41596;BME280;27283;52.504;13.358;2023-07-30T04:07:26;100513.47;;;16.45;100.00
41596;BME280;27283;52.504;13.358;2023-07-30T04:10:01;100518.72;;;16.54;100.00
41596;BME280;27283;52.504;13.358;2023-07-30T04:12:41;100518.09;;;16.52;100.00
41596;BME280;27283;52.504;13.358;2023-07-30T04:15:17;100523.72;;;16.57;100.00
41596;BME280;27283;52.504;13.358;2023-07-30T04:17:53;100523.47;;;16.65;100.00
41596;BME280;27283;52.504;13.358;2023-07-30T04:20:29;100528.47;;;16.68;100.00
41596;BME280;27283;52.504;13.358;2023-07-30T04:23:01;100528.47;;;16.68;100.00
41596;BME280;27283;52.504;13.358;2023-07-30T04:25:33;100527.44;;;16.76;100.00
41596;BME280;27283;52.504;13.358;2023-07-30T04:28:08;100522.41;;;16.79;100.00
41596;BME280;27283;52.504;13.358;2023-07-30T04:30:41;100522.22;;;16.68;100.00
41596;BME280;27283;52.504;13.358;2023-07-30T04:33:13;100532.88;;;16.76;100.00
41596;BME280;27283;52.504;13.358;2023-07-30T04:35:48;100536.84;;;16.73;100.00
41596;BME280;27283;52.504;13.358;2023-07-30T04:38:20;100527.19;;;16.84;100.00
41596;BME280;27283;52.504;13.358;2023-07-30T04:40:52;100532.03;;;16.82;100.00
41596;BME280;27283;52.504;13.358;2023-07-30T04:43:29;100543.50;;;16.97;100.00
41596;BME280;27283;52.504;13.358;2023-07-30T04:46:01;100534.09;;;17.00;100.00
41596;BME280;27283;52.504;13.358;2023-07-30T04:48:34;100536.59;;;16.95;100.00
41596;BME280;27283;52.504;13.358;2023-07-30T04:51:13;100546.59;;;17.08;100.00
41596;BME280;27283;52.504;13.358;2023-07-30T04:53:47;100543.25;;;17.12;100.00
41596;BME280;27283;52.504;13.358;2023-07-30T04:56:21;100545.28;;;17.24;100.00
41596;BME280;27283;52.504;13.358;2023-07-30T04:58:58;100544.41;;;17.36;100.00
41596;BME280;27283;52.504;13.358;2023-07-30T05:01:30;100531.81;;;17.49;100.00
41596;BME280;27283;52.504;13.358;2023-07-30T05:04:03;100534.03;;;17.59;100.00
41596;BME280;27283;52.504;13.358;2023-07-30T05:06:36;100537.56;;;17.66;100.00
41596;BME280;27283;52.504;13.358;2023-07-30T05:09:08;100534.25;;;17.57;100.00
41596;BME280;27283;52.504;13.358;2023-07-30T05:11:41;100538.78;;;17.70;100.00
41596;BME280;27283;52.504;13.358;2023-07-30T05:14:16;100539.97;;;17.81;100.00
41596;BME280;27283;52.504;13.358;2023-07-30T05:16:48;100537.88;;;17.83;100.00
41596;BME280;27283;52.504;13.358;2023-07-30T05:19:20;100534.38;;;17.76;100.00
41596;BME280;27283;52.504;13.358;2023-07-30T05:21:53;100536.38;;;17.87;100.00
41596;BME280;27283;52.504;13.358;2023-07-30T05:24:26;100530.88;;;18.00;100.00
41596;BME280;27283;52.504;13.358;2023-07-30T05:26:58;100536.72;;;18.29;100.00
41596;BME280;27283;52.504;13.358;2023-07-30T05:29:33;100532.31;;;18.28;100.00
41596;BME280;27283;52.504;13.358;2023-07-30T05:32:09;100538.34;;;18.37;100.00
41596;BME280;27283;52.504;13.358;2023-07-30T05:34:46;100538.53;;;18.60;98.57
41596;BME280;27283;52.504;13.358;2023-07-30T05:37:21;100546.19;;;18.95;98.41
41596;BME280;27283;52.504;13.358;2023-07-30T05:39:53;100536.38;;;19.43;89.69
41596;BME280;27283;52.504;13.358;2023-07-30T05:42:26;100537.84;;;19.27;87.73
41596;BME280;27283;52.504;13.358;2023-07-30T05:45:01;100545.66;;;19.24;89.81
41596;BME280;27283;52.504;13.358;2023-07-30T05:47:33;100556.47;;;19.30;92.10
41596;BME280;27283;52.504;13.358;2023-07-30T05:50:07;100548.91;;;19.33;95.25
41596;BME280;27283;52.504;13.358;2023-07-30T05:52:39;100543.81;;;19.36;93.73
41596;BME280;27283;52.504;13.358;2023-07-30T05:55:11;100553.47;;;19.99;88.21
41596;BME280;27283;52.504;13.358;2023-07-30T05:57:44;100547.88;;;20.72;84.82
41596;BME280;27283;52.504;13.358;2023-07-30T06:00:19;100545.63;;;20.69;87.40
41596;BME280;27283;52.504;13.358;2023-07-30T06:02:53;100549.41;;;20.92;84.97
41596;BME280;27283;52.504;13.358;2023-07-30T06:05:25;100538.06;;;21.12;82.95
41596;BME280;27283;52.504;13.358;2023-07-30T06:07:57;100556.63;;;20.98;79.27
41596;BME280;27283;52.504;13.358;2023-07-30T06:10:36;100549.16;;;21.46;79.30
41596;BME280;27283;52.504;13.358;2023-07-30T06:13:12;100548.16;;;21.64;80.09
41596;BME280;27283;52.504;13.358;2023-07-30T06:15:50;100548.25;;;21.69;78.85
41596;BME280;27283;52.504;13.358;2023-07-30T06:18:23;100552.56;;;21.65;78.25
41596;BME280;27283;52.504;13.358;2023-07-30T06:20:55;100538.47;;;21.44;79.77
41596;BME280;27283;52.504;13.358;2023-07-30T06:23:28;100549.63;;;20.31;80.62
41596;BME280;27283;52.504;13.358;2023-07-30T06:26:13;100549.59;;;20.54;82.45
41596;BME280;27283;52.504;13.358;2023-07-30T06:28:51;100541.63;;;20.17;84.55
41596;BME280;27283;52.504;13.358;2023-07-30T06:31:26;100538.38;;;20.75;87.20
41596;BME280;27283;52.504;13.358;2023-07-30T06:33:59;100541.16;;;21.15;79.59
41596;BME280;27283;52.504;13.358;2023-07-30T06:36:31;100541.09;;;21.39;82.72
41596;BME280;27283;52.504;13.358;2023-07-30T06:39:04;100544.91;;;21.38;83.05
41596;BME280;27283;52.504;13.358;2023-07-30T06:41:36;100544.41;;;21.00;81.09
41596;BME280;27283;52.504;13.358;2023-07-30T06:44:09;100550.00;;;20.58;83.79
41596;BME280;27283;52.504;13.358;2023-07-30T06:46:44;100547.13;;;20.65;88.25
41596;BME280;27283;52.504;13.358;2023-07-30T06:49:21;100549.38;;;20.32;88.74
41596;BME280;27283;52.504;13.358;2023-07-30T06:51:53;100546.75;;;20.38;88.19
41596;BME280;27283;52.504;13.358;2023-07-30T06:54:26;100541.91;;;20.40;94.06
41596;BME280;27283;52.504;13.358;2023-07-30T06:56:59;100546.19;;;20.47;92.45
41596;BME280;27283;52.504;13.358;2023-07-30T06:59:31;100541.19;;;20.56;88.24
41596;BME280;27283;52.504;13.358;2023-07-30T07:02:08;100550.31;;;20.62;86.95
41596;BME280;27283;52.504;13.358;2023-07-30T07:04:40;100542.22;;;21.14;80.39
41596;BME280;27283;52.504;13.358;2023-07-30T07:07:17;100554.44;;;21.93;78.02
41596;BME280;27283;52.504;13.358;2023-07-30T07:09:49;100549.56;;;21.66;76.19
41596;BME280;27283;52.504;13.358;2023-07-30T07:12:21;100546.00;;;22.11;80.75
41596;BME280;27283;52.504;13.358;2023-07-30T07:14:53;100555.75;;;22.53;79.00
41596;BME280;27283;52.504;13.358;2023-07-30T07:17:29;100550.84;;;22.55;76.45
41596;BME280;27283;52.504;13.358;2023-07-30T07:20:02;100545.97;;;22.96;79.15
41596;BME280;27283;52.504;13.358;2023-07-30T07:22:35;100542.59;;;23.33;70.59
41596;BME280;27283;52.504;13.358;2023-07-30T07:25:08;100538.72;;;23.79;75.09
41596;BME280;27283;52.504;13.358;2023-07-30T07:27:40;100538.72;;;24.06;70.87
41596;BME280;27283;52.504;13.358;2023-07-30T07:30:12;100544.91;;;24.23;65.70
41596;BME280;27283;52.504;13.358;2023-07-30T07:32:47;100541.84;;;23.38;67.00
41596;BME280;27283;52.504;13.358;2023-07-30T07:35:20;100548.19;;;22.43;70.96
41596;BME280;27283;52.504;13.358;2023-07-30T07:37:55;100536.38;;;22.77;72.46
41596;BME280;27283;52.504;13.358;2023-07-30T07:40:50;100540.75;;;22.78;73.74
41596;BME280;27283;52.504;13.358;2023-07-30T07:43:22;100543.22;;;23.63;71.69
41596;BME280;27283;52.504;13.358;2023-07-30T07:45:55;100539.34;;;23.36;67.61
41596;BME280;27283;52.504;13.358;2023-07-30T07:48:29;100535.16;;;23.78;68.57
41596;BME280;27283;52.504;13.358;2023-07-30T07:51:01;100533.75;;;24.35;68.79
41596;BME280;27283;52.504;13.358;2023-07-30T07:53:44;100538.63;;;24.61;64.52
41596;BME280;27283;52.504;13.358;2023-07-30T07:56:21;100535.72;;;24.77;63.14
41596;BME280;27283;52.504;13.358;2023-07-30T07:58:55;100533.84;;;25.52;61.97
41596;BME280;27283;52.504;13.358;2023-07-30T08:01:32;100532.50;;;25.59;61.17
41596;BME280;27283;52.504;13.358;2023-07-30T08:04:07;100539.06;;;24.90;61.59
41596;BME280;27283;52.504;13.358;2023-07-30T08:06:40;100554.88;;;24.35;63.15
41596;BME280;27283;52.504;13.358;2023-07-30T08:09:12;100544.66;;;23.43;67.51
41596;BME280;27283;52.504;13.358;2023-07-30T08:11:44;100540.19;;;24.51;68.32
41596;BME280;27283;52.504;13.358;2023-07-30T08:14:16;100541.16;;;23.48;68.48
41596;BME280;27283;52.504;13.358;2023-07-30T08:16:50;100547.84;;;22.74;69.55
41596;BME280;27283;52.504;13.358;2023-07-30T08:19:24;100553.97;;;23.20;68.70
41596;BME280;27283;52.504;13.358;2023-07-30T08:21:58;100549.78;;;22.56;69.41
41596;BME280;27283;52.504;13.358;2023-07-30T08:24:29;100546.94;;;22.34;68.85
41596;BME280;27283;52.504;13.358;2023-07-30T08:27:02;100544.91;;;21.95;70.41
41596;BME280;27283;52.504;13.358;2023-07-30T08:29:34;100549.88;;;23.23;65.69
41596;BME280;27283;52.504;13.358;2023-07-30T08:32:14;100552.53;;;23.62;63.79
41596;BME280;27283;52.504;13.358;2023-07-30T08:34:51;100548.97;;;23.61;65.51
41596;BME280;27283;52.504;13.358;2023-07-30T08:37:26;100546.25;;;22.78;65.44
41596;BME280;27283;52.504;13.358;2023-07-30T08:39:58;100548.47;;;22.81;67.71
41596;BME280;27283;52.504;13.358;2023-07-30T08:42:31;100557.13;;;23.56;64.36
41596;BME280;27283;52.504;13.358;2023-07-30T08:45:06;100550.94;;;24.20;59.83
41596;BME280;27283;52.504;13.358;2023-07-30T08:47:40;100552.84;;;24.20;62.23
41596;BME280;27283;52.504;13.358;2023-07-30T08:50:14;100550.94;;;23.66;59.17
41596;BME280;27283;52.504;13.358;2023-07-30T08:52:47;100556.31;;;23.11;62.13
41596;BME280;27283;52.504;13.358;2023-07-30T08:55:20;100553.19;;;23.03;60.57
41596;BME280;27283;52.504;13.358;2023-07-30T08:57:53;100548.56;;;23.08;61.19
41596;BME280;27283;52.504;13.358;2023-07-30T09:00:28;100554.56;;;23.71;59.18
41596;BME280;27283;52.504;13.358;2023-07-30T09:03:04;100552.56;;;23.40;60.21
41596;BME280;27283;52.504;13.358;2023-07-30T09:05:46;100555.06;;;23.02;61.46
41596;BME280;27283;52.504;13.358;2023-07-30T09:08:20;100561.44;;;23.96;60.32
41596;BME280;27283;52.504;13.358;2023-07-30T09:10:53;100559.28;;;24.31;58.91
41596;BME280;27283;52.504;13.358;2023-07-30T09:13:28;100560.16;;;24.09;57.40
41596;BME280;27283;52.504;13.358;2023-07-30T09:16:08;100559.88;;;24.05;61.22
41596;BME280;27283;52.504;13.358;2023-07-30T09:18:42;100561.34;;;23.86;58.96
41596;BME280;27283;52.504;13.358;2023-07-30T09:21:38;100558.63;;;23.42;55.04
41596;BME280;27283;52.504;13.358;2023-07-30T09:24:14;100563.88;;;24.25;54.06
41596;BME280;27283;52.504;13.358;2023-07-30T09:26:52;100563.66;;;24.32;50.39
41596;BME280;27283;52.504;13.358;2023-07-30T09:29:26;100569.78;;;25.24;49.02
41596;BME280;27283;52.504;13.358;2023-07-30T09:31:58;100561.75;;;25.12;49.40
41596;BME280;27283;52.504;13.358;2023-07-30T09:34:45;100569.56;;;24.13;50.73
41596;BME280;27283;52.504;13.358;2023-07-30T09:37:25;100565.59;;;24.31;55.91
41596;BME280;27283;52.504;13.358;2023-07-30T09:39:57;100562.50;;;25.03;50.32
41596;BME280;27283;52.504;13.358;2023-07-30T09:42:30;100559.88;;;24.05;51.41
41596;BME280;27283;52.504;13.358;2023-07-30T09:45:09;100559.09;;;25.33;53.54
41596;BME280;27283;52.504;13.358;2023-07-30T09:47:50;100564.09;;;25.41;46.77
41596;BME280;27283;52.504;13.358;2023-07-30T09:50:26;100568.28;;;25.01;49.96
41596;BME280;27283;52.504;13.358;2023-07-30T09:53:02;100563.66;;;25.80;51.47
41596;BME280;27283;52.504;13.358;2023-07-30T09:55:35;100570.59;;;26.14;45.93
41596;BME280;27283;52.504;13.358;2023-07-30T09:58:07;100574.16;;;26.04;45.82
41596;BME280;27283;52.504;13.358;2023-07-30T10:00:41;100569.97;;;26.99;46.57
41596;BME280;27283;52.504;13.358;2023-07-30T10:03:17;100568.09;;;26.84;46.00
41596;BME280;27283;52.504;13.358;2023-07-30T10:05:50;100563.41;;;26.75;47.62
41596;BME280;27283;52.504;13.358;2023-07-30T10:08:34;100561.09;;;27.18;45.94
41596;BME280;27283;52.504;13.358;2023-07-30T10:11:08;100578.78;;;27.77;46.08
41596;BME280;27283;52.504;13.358;2023-07-30T10:13:41;100573.00;;;26.98;42.76
41596;BME280;27283;52.504;13.358;2023-07-30T10:16:16;100569.34;;;27.28;43.60
41596;BME280;27283;52.504;13.358;2023-07-30T10:18:55;100571.13;;;26.88;45.26
41596;BME280;27283;52.504;13.358;2023-07-30T10:21:28;100560.69;;;26.23;46.14
41596;BME280;27283;52.504;13.358;2023-07-30T10:24:06;100567.03;;;26.03;44.77
41596;BME280;27283;52.504;13.358;2023-07-30T10:26:41;100561.19;;;26.61;47.09
41596;BME280;27283;52.504;13.358;2023-07-30T10:29:14;100563.72;;;26.68;44.66
41596;BME280;27283;52.504;13.358;2023-07-30T10:31:52;100569.97;;;26.99;44.76
41596;BME280;27283;52.504;13.358;2023-07-30T10:34:26;100559.13;;;27.23;46.25
41596;BME280;27283;52.504;13.358;2023-07-30T10:36:59;100563.81;;;27.33;43.06
41596;BME280;27283;52.504;13.358;2023-07-30T10:39:34;100561.91;;;28.23;39.59
41596;BME280;27283;52.504;13.358;2023-07-30T10:42:08;100573.97;;;27.93;40.61
41596;BME280;27283;52.504;13.358;2023-07-30T10:44:44;100577.63;;;27.33;40.24
41596;BME280;27283;52.504;13.358;2023-07-30T10:47:16;100576.94;;;27.62;42.82
41596;BME280;27283;52.504;13.358;2023-07-30T10:50:06;100566.06;;;27.76;42.51
41596;BME280;27283;52.504;13.358;2023-07-30T10:52:40;100574.97;;;27.63;40.68
41596;BME280;27283;52.504;13.358;2023-07-30T10:55:18;100570.72;;;27.36;43.43
41596;BME280;27283;52.504;13.358;2023-07-30T10:57:52;100579.41;;;26.42;42.16
41596;BME280;27283;52.504;13.358;2023-07-30T11:00:24;100573.91;;;26.52;41.95
41596;BME280;27283;52.504;13.358;2023-07-30T11:02:57;100571.44;;;28.07;39.72
41596;BME280;27283;52.504;13.358;2023-07-30T11:05:29;100569.28;;;27.93;40.52
41596;BME280;27283;52.504;13.358;2023-07-30T11:08:01;100574.78;;;27.99;41.48
41596;BME280;27283;52.504;13.358;2023-07-30T11:10:45;100574.34;;;27.81;40.24
41596;BME280;27283;52.504;13.358;2023-07-30T11:13:17;100572.44;;;27.76;43.41
41596;BME280;27283;52.504;13.358;2023-07-30T11:15:49;100566.75;;;28.02;39.87
41596;BME280;27283;52.504;13.358;2023-07-30T11:18:21;100565.91;;;26.81;39.66
41596;BME280;27283;52.504;13.358;2023-07-30T11:21:02;100568.09;;;26.90;40.73
41596;BME280;27283;52.504;13.358;2023-07-30T11:23:50;100555.41;;;26.83;41.59
41596;BME280;27283;52.504;13.358;2023-07-30T11:26:25;100554.16;;;27.36;42.52
41596;BME280;27283;52.504;13.358;2023-07-30T11:28:58;100558.34;;;27.18;40.23
41596;BME280;27283;52.504;13.358;2023-07-30T11:31:30;100549.31;;;26.86;39.08
41596;BME280;27283;52.504;13.358;2023-07-30T11:34:04;100559.81;;;26.64;39.15
41596;BME280;27283;52.504;13.358;2023-07-30T11:36:36;100554.88;;;26.14;39.17
41596;BME280;27283;52.504;13.358;2023-07-30T11:39:10;100547.41;;;25.84;39.51
41596;BME280;27283;52.504;13.358;2023-07-30T11:41:45;100540.56;;;26.17;39.72
41596;BME280;27283;52.504;13.358;2023-07-30T11:44:30;100554.91;;;26.45;39.86
41596;BME280;27283;52.504;13.358;2023-07-30T11:47:04;100539.72;;;26.53;43.00
41596;BME280;27283;52.504;13.358;2023-07-30T11:49:39;100537.56;;;27.31;40.48
41596;BME280;27283;52.504;13.358;2023-07-30T11:52:12;100541.00;;;27.07;38.32
41596;BME280;27283;52.504;13.358;2023-07-30T11:54:48;100537.75;;;26.84;38.11
41596;BME280;27283;52.504;13.358;2023-07-30T11:57:33;100549.63;;;25.97;39.79
41596;BME280;27283;52.504;13.358;2023-07-30T12:00:08;100551.53;;;25.87;39.66
41596;BME280;27283;52.504;13.358;2023-07-30T12:02:41;100550.44;;;25.93;41.75
41596;BME280;27283;52.504;13.358;2023-07-30T12:05:17;100545.72;;;25.83;43.61
41596;BME280;27283;52.504;13.358;2023-07-30T12:07:49;100552.41;;;26.39;45.66
41596;BME280;27283;52.504;13.358;2023-07-30T12:10:21;100542.75;;;26.77;41.38
41596;BME280;27283;52.504;13.358;2023-07-30T12:12:57;100555.16;;;26.59;38.23
41596;BME280;27283;52.504;13.358;2023-07-30T12:15:30;100543.00;;;26.70;38.92
41596;BME280;27283;52.504;13.358;2023-07-30T12:18:02;100552.09;;;26.66;40.89
41596;BME280;27283;52.504;13.358;2023-07-30T12:20:34;100539.47;;;26.24;41.03
41596;BME280;27283;52.504;13.358;2023-07-30T12:23:06;100539.44;;;26.44;43.23
41596;BME280;27283;52.504;13.358;2023-07-30T12:25:38;100546.91;;;26.08;42.29
41596;BME280;27283;52.504;13.358;2023-07-30T12:28:13;100542.72;;;25.06;42.08
41596;BME280;27283;52.504;13.358;2023-07-30T12:30:46;100547.94;;;25.07;43.16
41596;BME280;27283;52.504;13.358;2023-07-30T12:33:19;100540.50;;;25.81;44.68
41596;BME280;27283;52.504;13.358;2023-07-30T12:35:54;100541.66;;;26.32;39.88
41596;BME280;27283;52.504;13.358;2023-07-30T12:38:27;100544.94;;;26.60;42.61
41596;BME280;27283;52.504;13.358;2023-07-30T12:41:05;100543.31;;;26.33;42.73
41596;BME280;27283;52.504;13.358;2023-07-30T12:43:40;100552.91;;;25.84;41.75
41596;BME280;27283;52.504;13.358;2023-07-30T12:46:12;100535.75;;;25.46;41.09
41596;BME280;27283;52.504;13.358;2023-07-30T12:48:47;100545.91;;;25.40;45.09
41596;BME280;27283;52.504;13.358;2023-07-30T12:51:21;100526.41;;;25.52;44.10
41596;BME280;27283;52.504;13.358;2023-07-30T12:53:56;100537.19;;;25.85;47.27
41596;BME280;27283;52.504;13.358;2023-07-30T12:56:35;100538.31;;;25.68;42.64
41596;BME280;27283;52.504;13.358;2023-07-30T12:59:10;100538.56;;;25.77;44.46
41596;BME280;27283;52.504;13.358;2023-07-30T13:01:43;100540.53;;;25.87;41.75
41596;BME280;27283;52.504;13.358;2023-07-30T13:04:16;100530.06;;;24.57;42.54
41596;BME280;27283;52.504;13.358;2023-07-30T13:06:49;100529.81;;;25.06;47.35
41596;BME280;27283;52.504;13.358;2023-07-30T13:09:21;100533.25;;;25.39;46.55
41596;BME280;27283;52.504;13.358;2023-07-30T13:11:53;100520.09;;;24.93;42.52